Time;durP1;ratioP1;P1;durP2;ratioP2;P2;SDS_P1;SDS_P2;PMS_P1;PMS_P2;Temp;Humidity;BMP_temperature;BMP_pressure;BME280_temperature;BME280_humidity;BME280_pressure;Samples;Min_cycle;Max_cycle;Signal;HPM_P1;HPM_P2
2022/04/20 00:00:47;;;;;;;1.97;0.97;;;6.90;70.30;;;;;;5086084;28;20475;-65
2022/04/20 00:03:13;;;;;;;4.60;1.57;;;6.80;69.80;;;;;;5093379;28;20194;-65
2022/04/20 00:05:39;;;;;;;2.07;1.00;;;6.90;70.20;;;;;;5086848;28;20415;-65
2022/04/20 00:08:05;;;;;;;2.30;0.90;;;6.80;69.90;;;;;;5086359;28;20204;-62
2022/04/20 00:10:31;;;;;;;2.90;1.40;;;6.80;70.00;;;;;;5089131;28;20746;-64
2022/04/20 00:12:57;;;;;;;2.57;1.20;;;6.80;70.30;;;;;;5088712;28;20552;-67
2022/04/20 00:15:23;;;;;;;4.43;1.43;;;6.80;70.60;;;;;;5086550;28;20521;-65
2022/04/20 00:17:50;;;;;;;3.83;1.23;;;6.70;71.00;;;;;;5087524;28;20498;-65
2022/04/20 00:20:16;;;;;;;5.67;1.47;;;6.70;71.20;;;;;;5081207;28;20449;-64
2022/04/20 00:22:41;;;;;;;4.30;1.23;;;6.70;72.20;;;;;;5086651;28;20837;-64
2022/04/20 00:25:07;;;;;;;2.57;1.20;;;6.60;72.20;;;;;;5090541;28;21126;-64
2022/04/20 00:27:37;;;;;;;3.30;1.30;;;6.50;72.50;;;;;;5097532;28;20210;-63
2022/04/20 00:30:04;;;;;;;3.40;1.53;;;6.40;73.20;;;;;;5094047;28;20429;-65
2022/04/20 00:32:30;;;;;;;3.20;1.63;;;6.40;72.50;;;;;;5093314;28;20465;-66
2022/04/20 00:34:56;;;;;;;3.30;1.27;;;6.40;73.50;;;;;;5093738;28;21474;-65
2022/04/20 00:37:22;;;;;;;3.63;1.57;;;6.30;73.40;;;;;;5094342;28;20466;-64
2022/04/20 00:39:48;;;;;;;3.70;1.60;;;6.30;74.30;;;;;;5090215;28;20921;-63
2022/04/20 00:42:14;;;;;;;4.03;2.03;;;6.20;74.80;;;;;;5091221;28;20922;-64
2022/04/20 00:44:43;;;;;;;4.37;1.67;;;6.20;75.30;;;;;;5094925;28;20208;-65
2022/04/20 00:47:12;;;;;;;4.03;1.47;;;6.20;75.20;;;;;;5086059;28;20287;-64
2022/04/20 00:49:40;;;;;;;3.63;1.63;;;6.10;75.50;;;;;;5094938;28;20482;-66
2022/04/20 00:52:06;;;;;;;7.90;1.80;;;6.10;76.00;;;;;;5092071;28;20418;-66
2022/04/20 00:54:32;;;;;;;3.80;1.80;;;6.10;76.60;;;;;;5093679;28;20474;-66
2022/04/20 00:56:58;;;;;;;5.17;2.03;;;6.00;76.50;;;;;;5094065;28;20820;-63
2022/04/20 00:59:28;;;;;;;3.57;1.77;;;5.90;76.80;;;;;;5087491;28;20665;-66
2022/04/20 01:01:55;;;;;;;3.70;2.10;;;5.80;77.00;;;;;;5087650;28;20607;-67
2022/04/20 01:04:21;;;;;;;3.83;1.83;;;5.80;77.50;;;;;;5094769;28;20927;-66
2022/04/20 01:06:49;;;;;;;5.30;2.20;;;5.80;77.30;;;;;;5087089;28;20922;-66
2022/04/20 01:09:15;;;;;;;4.10;2.10;;;5.70;77.90;;;;;;5087973;28;20764;-65
2022/04/20 01:11:41;;;;;;;12.23;2.07;;;5.70;78.60;;;;;;5088854;28;20468;-67
2022/04/20 01:14:08;;;;;;;8.50;1.90;;;5.60;78.80;;;;;;5086429;28;20283;-63
2022/04/20 01:16:33;;;;;;;3.60;1.30;;;5.60;79.00;;;;;;5095508;28;20439;-64
2022/04/20 01:19:01;;;;;;;6.63;1.90;;;5.50;79.60;;;;;;5085934;28;20422;-66
2022/04/20 01:21:27;;;;;;;6.20;1.40;;;5.50;79.70;;;;;;5089921;28;20246;-62
2022/04/20 01:23:53;;;;;;;2.37;1.23;;;5.40;79.60;;;;;;5091855;28;20425;-64
2022/04/20 01:26:18;;;;;;;2.13;1.17;;;5.40;80.30;;;;;;5093790;28;20204;-65
2022/04/20 01:28:45;;;;;;;2.80;1.57;;;5.30;80.40;;;;;;5091852;28;21050;-64
2022/04/20 01:31:16;;;;;;;5.30;2.47;;;5.20;80.90;;;;;;5091216;28;20203;-67
2022/04/20 01:33:44;;;;;;;7.20;2.40;;;5.10;81.20;;;;;;5087247;28;20492;-66
2022/04/20 01:36:13;;;;;;;3.80;1.80;;;5.00;81.60;;;;;;5088919;28;21385;-66
2022/04/20 01:38:39;;;;;;;3.40;1.40;;;5.00;81.80;;;;;;5087608;28;20434;-64
2022/04/20 01:41:05;;;;;;;3.90;1.70;;;4.90;81.90;;;;;;5085126;28;20437;-65
2022/04/20 01:43:31;;;;;;;4.73;1.97;;;4.90;82.40;;;;;;5090945;28;20498;-65
2022/04/20 01:45:57;;;;;;;3.40;1.77;;;4.70;82.50;;;;;;5092250;28;20779;-64
2022/04/20 01:48:23;;;;;;;4.30;1.80;;;4.70;82.90;;;;;;5092504;28;20414;-63
2022/04/20 01:53:33;;;;;;;5.53;1.80;;;4.50;83.10;;;;;;5093283;28;20689;-63
2022/04/20 01:56:00;;;;;;;4.40;1.50;;;4.60;83.40;;;;;;5093345;28;20422;-64
2022/04/20 01:58:27;;;;;;;6.30;2.00;;;4.50;83.80;;;;;;5085141;28;20184;-64
2022/04/20 02:00:53;;;;;;;3.97;1.77;;;4.50;84.10;;;;;;5093668;28;20430;-64
2022/04/20 02:03:19;;;;;;;4.20;2.30;;;4.50;84.60;;;;;;5087935;28;20418;-65
2022/04/20 02:05:44;;;;;;;4.00;1.60;;;4.60;84.40;;;;;;5088197;28;20994;-64
2022/04/20 02:08:10;;;;;;;6.80;2.37;;;4.60;84.00;;;;;;5088361;28;20291;-66
2022/04/20 02:10:35;;;;;;;3.63;2.00;;;4.50;83.60;;;;;;5088936;28;20272;-65
2022/04/20 02:13:01;;;;;;;3.13;2.00;;;4.40;83.10;;;;;;5087768;28;20236;-63
2022/04/20 02:15:28;;;;;;;6.37;1.93;;;4.30;84.40;;;;;;5084100;28;20530;-64
2022/04/20 02:17:53;;;;;;;8.70;2.40;;;4.20;85.70;;;;;;5089892;28;20208;-64
2022/04/20 02:20:19;;;;;;;2.67;1.60;;;4.10;86.60;;;;;;5089264;28;20418;-62
2022/04/20 02:22:45;;;;;;;2.90;1.90;;;4.10;86.50;;;;;;5086183;28;20656;-63
2022/04/20 02:25:11;;;;;;;6.90;2.70;;;4.10;86.40;;;;;;5090532;28;20466;-64
2022/04/20 02:27:37;;;;;;;4.90;2.43;;;4.20;85.90;;;;;;5086339;28;20270;-63
2022/04/20 02:30:04;;;;;;;8.43;2.70;;;4.10;85.90;;;;;;5085871;28;20434;-65
2022/04/20 02:32:29;;;;;;;4.80;2.07;;;4.10;86.50;;;;;;5086501;28;21116;-64
2022/04/20 02:34:55;;;;;;;5.83;2.83;;;4.10;87.10;;;;;;5095348;28;20421;-63
2022/04/20 02:37:22;;;;;;;2.63;1.73;;;4.10;87.30;;;;;;5086049;28;20260;-64
2022/04/20 02:39:48;;;;;;;4.17;1.73;;;4.10;87.30;;;;;;5085503;28;20909;-62
2022/04/20 02:42:15;;;;;;;4.53;2.03;;;4.10;87.30;;;;;;5086911;28;20537;-63
2022/04/20 02:44:41;;;;;;;5.87;2.13;;;4.00;87.50;;;;;;5093200;28;20458;-63
2022/04/20 02:47:07;;;;;;;4.00;2.20;;;4.00;88.30;;;;;;5085751;28;20539;-64
2022/04/20 02:49:35;;;;;;;4.77;2.50;;;4.10;88.50;;;;;;5085068;28;20191;-63
2022/04/20 02:52:00;;;;;;;4.60;2.40;;;4.10;88.50;;;;;;5084172;28;20525;-64
2022/04/20 02:54:27;;;;;;;3.20;2.03;;;4.00;88.60;;;;;;5085219;28;20461;-63
2022/04/20 02:56:53;;;;;;;8.20;2.67;;;4.00;89.00;;;;;;5087383;28;20200;-64
2022/04/20 02:59:19;;;;;;;3.97;2.40;;;4.00;89.10;;;;;;5087280;28;20441;-64
2022/04/20 03:01:44;;;;;;;4.67;2.23;;;3.90;89.50;;;;;;5095238;28;20191;-64
2022/04/20 03:04:10;;;;;;;3.73;2.30;;;3.80;90.10;;;;;;5087655;28;20291;-65
2022/04/20 03:06:36;;;;;;;5.47;2.50;;;3.80;90.20;;;;;;5083748;28;20295;-63
2022/04/20 03:09:02;;;;;;;4.50;2.57;;;3.80;90.40;;;;;;5084774;28;20193;-65
2022/04/20 03:11:28;;;;;;;4.43;2.37;;;3.80;90.50;;;;;;5089392;28;20268;-63
2022/04/20 03:13:54;;;;;;;4.43;2.30;;;3.80;90.30;;;;;;5089001;28;21030;-65
2022/04/20 03:16:19;;;;;;;4.30;2.20;;;3.70;90.30;;;;;;5086398;28;20706;-64
2022/04/20 03:18:45;;;;;;;4.23;1.97;;;3.60;90.40;;;;;;5089926;28;20183;-63
2022/04/20 03:21:11;;;;;;;3.33;2.17;;;3.50;90.10;;;;;;5092521;28;20188;-65
2022/04/20 03:23:36;;;;;;;7.33;1.80;;;3.40;90.20;;;;;;5095234;28;20195;-64
2022/04/20 03:26:03;;;;;;;4.60;2.23;;;3.40;90.30;;;;;;5086169;28;20187;-63
2022/04/20 03:28:29;;;;;;;5.63;2.20;;;3.30;90.20;;;;;;5094974;28;20187;-65
2022/04/20 03:30:55;;;;;;;4.60;2.13;;;3.20;90.20;;;;;;5091839;28;20441;-64
2022/04/20 03:33:21;;;;;;;3.20;1.67;;;3.20;90.70;;;;;;5097806;28;20579;-65
2022/04/20 03:35:47;;;;;;;7.20;2.97;;;3.20;90.60;;;;;;5084762;28;20251;-62
2022/04/20 03:38:12;;;;;;;15.83;2.20;;;3.20;90.90;;;;;;5084724;28;20438;-63
2022/04/20 03:40:38;;;;;;;6.30;2.50;;;3.20;91.10;;;;;;5084907;28;20183;-64
2022/04/20 03:43:04;;;;;;;3.27;2.17;;;3.10;91.10;;;;;;5086297;28;20272;-64
2022/04/20 03:45:30;;;;;;;5.67;3.00;;;3.10;91.50;;;;;;5086628;28;20249;-65
2022/04/20 03:47:55;;;;;;;8.37;3.00;;;3.10;92.00;;;;;;5086614;28;20205;-64
2022/04/20 03:50:21;;;;;;;29.97;2.80;;;3.20;91.90;;;;;;5082362;28;20983;-65
2022/04/20 03:52:47;;;;;;;7.57;3.17;;;3.20;92.20;;;;;;5087025;28;20269;-64
2022/04/20 03:55:12;;;;;;;6.70;2.87;;;3.20;92.10;;;;;;5085658;28;20195;-64
2022/04/20 03:57:39;;;;;;;4.10;2.70;;;3.10;92.20;;;;;;5092253;28;20331;-64
2022/04/20 04:00:06;;;;;;;5.00;2.80;;;3.20;92.50;;;;;;5089541;28;20631;-63
2022/04/20 04:02:31;;;;;;;4.17;2.40;;;3.10;92.40;;;;;;5091590;28;20425;-62
2022/04/20 04:04:57;;;;;;;9.43;2.97;;;3.10;92.60;;;;;;5089081;28;20462;-62
2022/04/20 04:07:23;;;;;;;7.37;2.90;;;3.10;92.80;;;;;;5089804;28;20234;-64
2022/04/20 04:09:49;;;;;;;2.90;2.00;;;3.20;93.00;;;;;;5090800;28;20859;-65
2022/04/20 04:12:14;;;;;;;6.20;3.07;;;3.10;92.70;;;;;;5097013;28;20611;-64
2022/04/20 04:14:41;;;;;;;5.00;2.40;;;3.00;92.80;;;;;;5089227;28;20612;-64
2022/04/20 04:17:08;;;;;;;5.90;2.77;;;2.90;93.00;;;;;;5093891;28;20476;-65
2022/04/20 04:19:35;;;;;;;7.03;3.13;;;2.90;93.00;;;;;;5090599;28;20975;-63
2022/04/20 04:22:04;;;;;;;7.43;2.83;;;2.80;92.50;;;;;;5102188;28;21268;-61
2022/04/20 04:24:36;;;;;;;14.73;2.43;;;2.70;92.40;;;;;;5095113;27;20862;-64
2022/04/20 04:27:06;;;;;;;6.10;3.07;;;2.70;92.20;;;;;;5095245;28;20959;-64
2022/04/20 04:29:32;;;;;;;5.60;3.27;;;2.60;92.50;;;;;;5100311;28;20414;-63
2022/04/20 04:31:58;;;;;;;6.87;3.50;;;2.50;92.60;;;;;;5095695;28;20481;-66
2022/04/20 04:34:24;;;;;;;5.63;3.37;;;2.50;92.90;;;;;;5102819;28;20218;-65
2022/04/20 04:36:56;;;;;;;8.67;4.80;;;2.50;93.00;;;;;;5089372;28;20426;-64
2022/04/20 04:39:22;;;;;;;9.60;4.63;;;2.50;93.10;;;;;;5088870;28;20252;-65
2022/04/20 04:41:50;;;;;;;11.17;4.17;;;2.60;93.10;;;;;;5094815;28;20579;-65
2022/04/20 04:44:20;;;;;;;6.90;4.80;;;2.50;93.80;;;;;;5095952;28;20434;-66
2022/04/20 04:49:31;;;;;;;25.37;9.17;;;2.60;93.50;;;;;;5094437;28;20469;-66
2022/04/20 04:51:59;;;;;;;20.93;7.40;;;2.50;93.60;;;;;;5091741;28;20425;-63
2022/04/20 04:54:25;;;;;;;28.03;10.37;;;2.50;93.80;;;;;;5093044;28;21228;-65
2022/04/20 04:56:51;;;;;;;28.60;10.80;;;2.50;93.80;;;;;;5095371;28;20890;-64
2022/04/20 04:59:18;;;;;;;28.50;10.73;;;2.50;93.70;;;;;;5093389;28;20426;-65
2022/04/20 05:01:44;;;;;;;39.50;12.40;;;2.50;93.60;;;;;;5093391;28;20449;-64
2022/04/20 05:04:11;;;;;;;25.30;9.93;;;2.50;93.70;;;;;;5088679;28;20454;-66
2022/04/20 05:06:37;;;;;;;37.07;9.53;;;2.60;93.80;;;;;;5088327;28;21009;-65
2022/04/20 05:09:03;;;;;;;24.93;9.20;;;2.60;93.90;;;;;;5091087;27;20430;-65
2022/04/20 05:11:29;;;;;;;20.60;6.30;;;2.60;94.10;;;;;;5091596;28;20500;-65
2022/04/20 05:13:55;;;;;;;19.67;7.47;;;2.60;93.90;;;;;;5088433;28;20979;-64
2022/04/20 05:16:21;;;;;;;14.73;6.53;;;2.70;94.10;;;;;;5088343;28;20431;-64
2022/04/20 05:18:47;;;;;;;10.80;4.70;;;2.80;93.90;;;;;;5092446;28;20929;-65
2022/04/20 05:21:13;;;;;;;19.03;6.33;;;2.90;94.10;;;;;;5088059;28;20422;-66
2022/04/20 05:23:38;;;;;;;14.33;6.27;;;2.90;94.10;;;;;;5108086;28;20188;-63
2022/04/20 05:26:04;;;;;;;11.80;5.03;;;3.00;94.20;;;;;;5104717;28;20215;-65
2022/04/20 05:28:30;;;;;;;11.23;5.40;;;3.00;94.10;;;;;;5104840;28;20225;-64
2022/04/20 05:30:55;;;;;;;9.13;4.50;;;3.10;94.10;;;;;;5104773;28;20196;-65
2022/04/20 05:33:21;;;;;;;9.83;4.83;;;3.10;93.60;;;;;;5108295;28;20200;-67
2022/04/20 05:35:47;;;;;;;8.70;4.30;;;3.20;93.80;;;;;;5105303;28;20196;-66
2022/04/20 05:43:42;;;;;;;5.00;2.50;;;3.50;94.20;;;;;;5091418;28;20590;-64
2022/04/20 05:46:09;;;;;;;7.33;4.03;;;3.60;93.70;;;;;;5093869;28;20508;-64
2022/04/20 05:48:35;;;;;;;3.30;2.40;;;3.60;93.50;;;;;;5090573;28;20184;-64
2022/04/20 05:51:01;;;;;;;5.50;2.50;;;3.80;93.30;;;;;;5088246;28;20429;-64
2022/04/20 05:53:26;;;;;;;8.23;2.87;;;3.90;93.20;;;;;;5091771;28;20260;-64
2022/04/20 05:55:52;;;;;;;5.33;2.93;;;4.10;93.10;;;;;;5091929;28;20224;-62
2022/04/20 05:58:18;;;;;;;4.70;3.07;;;4.20;92.70;;;;;;5090903;28;20176;-64
2022/04/20 06:00:43;;;;;;;5.20;2.47;;;4.30;92.20;;;;;;5091418;28;20187;-64
2022/04/20 06:03:09;;;;;;;5.70;2.90;;;4.50;91.80;;;;;;5091787;28;20192;-62
2022/04/20 06:05:35;;;;;;;5.33;2.20;;;4.60;91.40;;;;;;5087901;28;20283;-64
2022/04/20 06:08:00;;;;;;;4.60;2.30;;;4.70;90.90;;;;;;5092218;28;20763;-64
2022/04/20 06:10:29;;;;;;;4.37;2.00;;;4.80;90.70;;;;;;5086268;28;20255;-65
2022/04/20 06:12:54;;;;;;;5.97;2.40;;;5.00;90.10;;;;;;5086523;28;20671;-64
2022/04/20 06:15:20;;;;;;;3.20;2.07;;;5.10;89.40;;;;;;5087158;28;20418;-64
2022/04/20 06:17:45;;;;;;;2.80;1.80;;;5.10;89.40;;;;;;5086692;28;20196;-62
2022/04/20 06:20:11;;;;;;;4.20;1.93;;;5.20;88.80;;;;;;5085650;28;20685;-62
2022/04/20 06:22:37;;;;;;;3.73;1.83;;;5.30;88.00;;;;;;5085881;28;20204;-62
2022/04/20 06:25:03;;;;;;;4.33;2.40;;;5.40;87.60;;;;;;5093870;28;20176;-64
2022/04/20 06:27:30;;;;;;;3.03;2.00;;;5.40;87.50;;;;;;5092112;28;20208;-63
2022/04/20 06:29:56;;;;;;;4.30;2.30;;;5.50;86.70;;;;;;5087175;28;20252;-64
2022/04/20 06:32:23;;;;;;;3.23;2.00;;;5.70;86.20;;;;;;5086726;28;20426;-64
2022/04/20 06:34:49;;;;;;;2.80;1.70;;;5.70;84.90;;;;;;5086758;28;20702;-65
2022/04/20 06:37:15;;;;;;;3.33;1.70;;;5.80;85.00;;;;;;5086404;28;20442;-65
2022/04/20 06:39:41;;;;;;;3.17;2.00;;;6.00;83.50;;;;;;5087439;28;20180;-65
2022/04/20 06:42:07;;;;;;;4.83;1.60;;;6.10;83.20;;;;;;5087043;28;20265;-64
2022/04/20 06:44:33;;;;;;;9.53;2.20;;;6.20;82.40;;;;;;5090823;28;20447;-64
2022/04/20 06:46:59;;;;;;;4.00;1.97;;;6.40;81.70;;;;;;5088951;28;20968;-65
2022/04/20 06:49:25;;;;;;;3.40;1.90;;;6.50;81.20;;;;;;5092019;28;20217;-64
2022/04/20 07:00:03;;;;;;;6.30;2.13;;;6.90;80.00;;;;;;5083276;28;20413;-65
2022/04/20 07:02:29;;;;;;;4.83;1.60;;;7.10;78.90;;;;;;5101957;28;20500;-64
2022/04/20 07:04:54;;;;;;;4.07;2.30;;;7.40;77.70;;;;;;5090201;28;20505;-65
2022/04/20 07:07:20;;;;;;;3.67;1.70;;;7.50;76.60;;;;;;5091769;28;20207;-66
2022/04/20 07:09:46;;;;;;;11.40;2.30;;;7.60;77.00;;;;;;5090781;28;20647;-66
2022/04/20 07:12:12;;;;;;;7.93;1.37;;;8.10;75.90;;;;;;5091659;28;20264;-66
2022/04/20 07:14:38;;;;;;;5.33;2.27;;;8.30;74.40;;;;;;5088895;28;21025;-67
2022/04/20 07:17:06;;;;;;;5.10;2.20;;;8.60;74.20;;;;;;5086119;28;20442;-64
2022/04/20 07:19:31;;;;;;;2.63;1.77;;;8.90;73.50;;;;;;5085861;28;20177;-65
2022/04/20 07:21:57;;;;;;;3.10;2.00;;;9.30;72.10;;;;;;5087092;28;20476;-65
2022/04/20 07:24:23;;;;;;;3.67;2.13;;;9.40;71.30;;;;;;5085463;28;20195;-65
2022/04/20 07:26:48;;;;;;;4.13;2.07;;;9.60;70.80;;;;;;5085623;28;20726;-65
2022/04/20 07:29:14;;;;;;;2.60;1.50;;;9.60;70.50;;;;;;5086483;28;20695;-64
2022/04/20 07:31:39;;;;;;;2.87;1.60;;;10.90;68.00;;;;;;5091052;28;20194;-65
2022/04/20 07:34:05;;;;;;;2.83;1.53;;;12.40;64.60;;;;;;5087646;28;20216;-64
2022/04/20 07:36:31;;;;;;;7.20;1.60;;;13.20;61.90;;;;;;5088261;28;20204;-65
2022/04/20 07:38:56;;;;;;;2.83;1.40;;;14.20;58.20;;;;;;5089193;28;20184;-66
2022/04/20 07:41:22;;;;;;;7.83;1.93;;;13.60;58.20;;;;;;5091493;28;20277;-64
2022/04/20 07:43:49;;;;;;;2.30;1.53;;;14.10;58.20;;;;;;5090162;28;20803;-66
2022/04/20 07:46:17;;;;;;;4.63;2.57;;;13.40;57.70;;;;;;5088908;28;20718;-65
2022/04/20 07:48:43;;;;;;;2.83;1.70;;;13.80;58.90;;;;;;5084578;28;21263;-64
2022/04/20 07:51:09;;;;;;;3.93;1.83;;;14.90;56.90;;;;;;5083797;28;20513;-65
2022/04/20 07:53:35;;;;;;;5.60;2.23;;;15.20;55.30;;;;;;5089905;28;20312;-66
2022/04/20 07:56:00;;;;;;;10.63;1.57;;;13.90;56.20;;;;;;5091806;28;20180;-64
2022/04/20 07:58:26;;;;;;;3.20;1.50;;;14.20;58.10;;;;;;5083511;28;20645;-66
2022/04/20 08:00:53;;;;;;;3.50;1.70;;;15.00;56.20;;;;;;5085449;28;20184;-65
2022/04/20 08:03:20;;;;;;;3.77;1.93;;;14.80;56.70;;;;;;5084638;28;20579;-65
2022/04/20 08:05:51;;;;;;;2.00;1.37;;;15.50;55.50;;;;;;5086213;28;20429;-66
2022/04/20 08:08:17;;;;;;;3.90;1.70;;;14.90;55.40;;;;;;5080925;28;20429;-65
2022/04/20 08:10:42;;;;;;;4.60;2.10;;;15.60;56.10;;;;;;5085295;28;20877;-66
2022/04/20 08:15:54;;;;;;;2.80;1.77;;;15.20;55.70;;;;;;5085030;28;20228;-65
2022/04/20 08:18:19;;;;;;;2.90;1.40;;;15.60;54.90;;;;;;5086348;28;20984;-64
2022/04/20 08:20:45;;;;;;;5.43;2.20;;;15.20;56.20;;;;;;5084607;28;20417;-65
2022/04/20 08:23:11;;;;;;;3.53;2.00;;;16.10;54.90;;;;;;5084940;28;20189;-65
2022/04/20 08:25:36;;;;;;;6.77;2.10;;;16.10;54.80;;;;;;5087237;28;20425;-66
2022/04/20 08:28:02;;;;;;;3.43;2.10;;;16.40;54.40;;;;;;5091007;28;20214;-65
2022/04/20 08:30:28;;;;;;;4.70;2.13;;;16.40;53.60;;;;;;5084365;28;20192;-64
2022/04/20 08:32:54;;;;;;;5.07;2.30;;;16.80;53.10;;;;;;5084886;28;20282;-66
2022/04/20 08:35:19;;;;;;;5.50;2.13;;;16.50;53.10;;;;;;5088348;28;20176;-66
2022/04/20 08:37:45;;;;;;;3.80;2.27;;;16.80;52.00;;;;;;5088598;28;20264;-65
2022/04/20 08:40:12;;;;;;;2.87;1.50;;;16.60;51.70;;;;;;5088402;28;20249;-63
2022/04/20 08:42:39;;;;;;;5.67;1.80;;;16.80;52.60;;;;;;5086745;28;20192;-64
2022/04/20 08:45:05;;;;;;;3.27;1.63;;;16.70;53.00;;;;;;5092342;28;20419;-65
2022/04/20 08:47:36;;;;;;;3.40;2.07;;;17.00;52.50;;;;;;5096691;28;20441;-65
2022/04/20 08:50:04;;;;;;;6.67;2.73;;;16.70;53.00;;;;;;5091984;28;21024;-63
2022/04/20 08:52:41;;;;;;;5.07;2.40;;;16.40;52.30;;;;;;5099221;28;20418;-65
2022/04/20 08:55:07;;;;;;;8.50;1.80;;;16.20;53.30;;;;;;5095054;28;20513;-63
2022/04/20 08:57:34;;;;;;;2.97;1.90;;;16.30;52.60;;;;;;5101286;28;20533;-64
2022/04/20 09:00:01;;;;;;;3.60;1.97;;;16.70;52.50;;;;;;5089473;28;20180;-65
2022/04/20 09:02:28;;;;;;;3.50;1.93;;;16.40;52.50;;;;;;5088957;28;20423;-64
2022/04/20 09:04:54;;;;;;;3.63;1.90;;;15.50;54.50;;;;;;5089942;28;20521;-65
2022/04/20 09:07:20;;;;;;;3.07;2.27;;;15.50;54.60;;;;;;5090581;28;20437;-65
2022/04/20 09:09:46;;;;;;;5.73;1.67;;;16.10;52.50;;;;;;5089665;28;20418;-65
2022/04/20 09:12:16;;;;;;;4.70;2.10;;;15.90;53.10;;;;;;5090897;28;20181;-64
2022/04/20 09:14:43;;;;;;;5.30;2.00;;;15.00;53.40;;;;;;5088996;28;20547;-65
2022/04/20 09:17:15;;;;;;;3.97;1.70;;;15.00;55.00;;;;;;5089977;28;20438;-65
2022/04/20 09:19:41;;;;;;;5.03;2.43;;;15.30;53.70;;;;;;5092438;28;20411;-66
2022/04/20 09:22:23;;;;;;;4.83;2.40;;;15.30;54.10;;;;;;5089627;28;20425;-65
2022/04/20 09:25:03;;;;;;;5.80;2.17;;;14.90;54.30;;;;;;5089522;28;20190;-64
2022/04/20 09:27:30;;;;;;;2.70;1.90;;;15.20;52.60;;;;;;5087526;28;20457;-65
2022/04/20 09:29:56;;;;;;;2.60;1.53;;;14.90;53.70;;;;;;5091045;28;20413;-63
2022/04/20 09:32:36;;;;;;;3.97;2.00;;;14.20;54.30;;;;;;5092598;28;20519;-64
2022/04/20 09:35:03;;;;;;;3.20;1.50;;;14.40;54.50;;;;;;5089216;28;20876;-65
2022/04/20 09:37:30;;;;;;;5.30;2.00;;;14.30;54.40;;;;;;5093368;28;20434;-65
2022/04/20 09:39:57;;;;;;;8.03;1.60;;;15.00;53.30;;;;;;5095941;28;20413;-65
2022/04/20 09:42:24;;;;;;;6.70;2.10;;;15.30;52.40;;;;;;5085311;28;20449;-65
2022/04/20 09:44:57;;;;;;;4.63;2.13;;;15.40;52.10;;;;;;5099229;28;20547;-65
2022/04/20 09:50:18;;;;;;;3.40;1.73;;;15.10;51.70;;;;;;5096290;28;20465;-64
2022/04/20 09:52:49;;;;;;;3.23;1.60;;;14.70;54.60;;;;;;5115988;27;20424;-65
2022/04/20 09:55:25;;;;;;;3.57;1.97;;;14.90;52.20;;;;;;5097074;28;20420;-65
2022/04/20 09:57:51;;;;;;;2.53;1.67;;;14.70;51.60;;;;;;5095978;28;20441;-64
2022/04/20 10:00:16;;;;;;;3.80;1.63;;;14.30;51.80;;;;;;5096679;28;20421;-65
2022/04/20 10:02:53;;;;;;;3.17;1.67;;;14.00;52.00;;;;;;5097283;28;20564;-65
2022/04/20 10:05:23;;;;;;;5.00;1.40;;;13.50;52.80;;;;;;5096100;28;20458;-64
2022/04/20 10:07:51;;;;;;;6.17;2.33;;;13.50;53.10;;;;;;5099774;28;20438;-65
2022/04/20 10:10:17;;;;;;;3.60;1.87;;;13.40;52.60;;;;;;5096512;28;20928;-64
2022/04/20 10:12:44;;;;;;;7.30;1.70;;;12.90;53.50;;;;;;5096430;28;20414;-64
2022/04/20 10:17:56;;;;;;;7.43;2.03;;;12.80;50.50;;;;;;5090351;28;20498;-65
2022/04/20 10:20:26;;;;;;;3.83;1.43;;;12.70;53.70;;;;;;5087971;28;20525;-65
2022/04/20 10:22:53;;;;;;;5.33;1.50;;;12.80;52.00;;;;;;5090212;28;20434;-65
2022/04/20 10:25:20;;;;;;;2.70;1.50;;;12.80;50.10;;;;;;5091294;28;20504;-62
2022/04/20 10:27:57;;;;;;;3.27;1.80;;;12.80;51.40;;;;;;5087812;28;20451;-65
2022/04/20 10:31:03;;;;;;;3.63;1.70;;;12.80;52.30;;;;;;5087943;28;20804;-65
2022/04/20 10:33:33;;;;;;;3.60;1.57;;;12.90;52.00;;;;;;5041664;28;20478;-65
2022/04/20 10:36:01;;;;;;;3.37;1.80;;;12.70;52.10;;;;;;5087966;28;20454;-65
2022/04/20 10:38:30;;;;;;;2.20;1.30;;;12.80;51.10;;;;;;5095432;28;20426;-65
2022/04/20 10:41:02;;;;;;;5.17;1.73;;;12.80;49.50;;;;;;5092724;28;20421;-63
2022/04/20 10:43:29;;;;;;;3.30;1.73;;;12.90;49.40;;;;;;5090150;28;20495;-64
2022/04/20 10:46:04;;;;;;;10.93;2.00;;;13.00;52.10;;;;;;5093045;28;20431;-65
2022/04/20 10:49:07;;;;;;;2.20;1.50;;;12.90;50.70;;;;;;5085648;28;21027;-66
2022/04/20 10:51:41;;;;;;;2.70;1.30;;;12.80;50.20;;;;;;5072031;28;20514;-66
2022/04/20 10:54:22;;;;;;;16.00;1.63;;;12.60;51.10;;;;;;5086944;28;20491;-66
2022/04/20 10:57:01;;;;;;;7.20;1.70;;;12.50;52.70;;;;;;5087730;28;20450;-65
2022/04/20 10:59:28;;;;;;;3.07;1.53;;;12.80;51.60;;;;;;5081050;28;20406;-66
2022/04/20 11:02:02;;;;;;;5.07;1.77;;;13.00;51.90;;;;;;5088099;28;20430;-66
2022/04/20 11:04:46;;;;;;;3.90;1.60;;;13.10;53.20;;;;;;5079912;28;20418;-64
2022/04/20 11:07:15;;;;;;;3.43;1.80;;;13.20;52.40;;;;;;5088307;28;20442;-65
2022/04/20 11:09:50;;;;;;;5.40;2.10;;;13.20;52.80;;;;;;5084455;28;20470;-66
2022/04/20 11:18:38;;;;;;;4.93;1.90;;;13.20;52.90;;;;;;5000762;28;20859;-65
2022/04/20 11:21:05;;;;;;;4.47;1.80;;;13.30;51.90;;;;;;5002943;28;20426;-65
2022/04/20 11:23:49;;;;;;;2.80;1.60;;;13.50;52.40;;;;;;5053242;28;20421;-63
2022/04/20 11:26:19;;;;;;;3.40;1.53;;;13.70;50.90;;;;;;5085870;28;20438;-66
2022/04/20 11:28:46;;;;;;;4.20;1.53;;;13.50;52.20;;;;;;5091342;28;20452;-66
2022/04/20 11:31:12;;;;;;;2.87;1.70;;;13.70;54.20;;;;;;5089242;28;20948;-65
2022/04/20 11:33:39;;;;;;;4.73;2.00;;;14.00;52.90;;;;;;5095937;28;20458;-65
2022/04/20 11:36:05;;;;;;;5.80;1.73;;;14.10;52.00;;;;;;5086703;28;20426;-66
2022/04/20 11:38:44;;;;;;;2.47;1.47;;;14.20;51.80;;;;;;5092626;28;20464;-67
2022/04/20 11:41:11;;;;;;;5.23;2.20;;;14.20;50.70;;;;;;5086815;28;20726;-66
2022/04/20 11:43:39;;;;;;;2.23;1.43;;;14.10;52.00;;;;;;5087316;28;20442;-67
2022/04/20 11:46:05;;;;;;;3.90;1.90;;;14.20;51.40;;;;;;5087116;28;20468;-66
2022/04/20 11:48:35;;;;;;;3.23;1.63;;;14.20;53.40;;;;;;5087359;28;20433;-66
2022/04/20 11:51:03;;;;;;;4.47;2.00;;;14.30;52.30;;;;;;5087158;28;20928;-66
2022/04/20 11:53:41;;;;;;;6.53;2.10;;;14.30;52.10;;;;;;5083072;28;20981;-66
2022/04/20 11:56:10;;;;;;;4.27;2.20;;;14.40;52.60;;;;;;5088936;28;20422;-65
2022/04/20 11:58:39;;;;;;;4.30;1.90;;;14.40;51.00;;;;;;5085062;28;20510;-66
2022/04/20 12:01:07;;;;;;;3.97;2.00;;;14.50;51.60;;;;;;5085504;28;20438;-65
2022/04/20 12:03:41;;;;;;;3.70;1.70;;;14.60;52.50;;;;;;5089407;28;20815;-66
2022/04/20 12:06:08;;;;;;;6.27;2.53;;;14.70;50.80;;;;;;5095141;28;20399;-65
2022/04/20 12:08:35;;;;;;;3.50;1.90;;;14.80;51.50;;;;;;5084687;28;20434;-66
2022/04/20 12:11:07;;;;;;;4.50;2.07;;;14.80;52.10;;;;;;5086780;28;20441;-66
2022/04/20 12:13:33;;;;;;;4.53;1.70;;;14.80;51.10;;;;;;5079903;28;20815;-67
2022/04/20 12:16:08;;;;;;;3.37;1.47;;;14.70;51.70;;;;;;5079130;28;20427;-66
2022/04/20 12:18:44;;;;;;;3.70;1.70;;;15.00;50.90;;;;;;5079906;28;20844;-66
2022/04/20 12:21:40;;;;;;;2.97;1.97;;;15.10;50.00;;;;;;5082033;28;20434;-67
2022/04/20 12:24:19;;;;;;;8.10;2.23;;;14.90;49.60;;;;;;5088448;28;20441;-66
2022/04/20 12:26:47;;;;;;;3.13;1.80;;;14.80;50.10;;;;;;5087110;28;21020;-66
2022/04/20 12:29:14;;;;;;;2.57;1.27;;;14.70;51.10;;;;;;5093268;28;20430;-67
2022/04/20 12:31:43;;;;;;;3.17;1.43;;;14.70;53.80;;;;;;5087820;28;20528;-66
2022/04/20 12:34:12;;;;;;;3.10;1.60;;;14.90;52.40;;;;;;5088256;28;21048;-67
2022/04/20 12:37:14;;;;;;;4.03;2.20;;;15.20;51.70;;;;;;5086841;28;20557;-66
2022/04/20 12:39:45;;;;;;;3.47;1.83;;;15.40;50.80;;;;;;5085453;28;20434;-66
2022/04/20 12:42:15;;;;;;;3.60;2.00;;;15.30;51.60;;;;;;5087902;28;20999;-67
2022/04/20 12:44:47;;;;;;;2.63;1.20;;;15.30;50.30;;;;;;5088114;28;20823;-66
2022/04/20 12:47:14;;;;;;;3.50;1.87;;;15.40;49.50;;;;;;5087448;28;20961;-64
2022/04/20 12:49:41;;;;;;;3.27;1.77;;;15.50;48.00;;;;;;5087231;28;20414;-64
2022/04/20 12:52:12;;;;;;;4.60;2.47;;;15.30;50.70;;;;;;5085341;28;20472;-63
2022/04/20 12:54:38;;;;;;;3.73;1.63;;;15.00;49.40;;;;;;5087335;28;20505;-63
2022/04/20 13:03:20;;;;;;;3.20;1.80;;;15.20;49.50;;;;;;5039249;28;20729;-64
2022/04/20 13:05:45;;;;;;;10.00;2.70;;;15.30;49.40;;;;;;5083133;28;20438;-64
2022/04/20 13:08:13;;;;;;;2.90;1.47;;;15.50;48.10;;;;;;5074833;28;20469;-63
2022/04/20 13:10:51;;;;;;;8.10;1.97;;;15.50;49.60;;;;;;5084788;28;20196;-64
2022/04/20 13:13:22;;;;;;;2.63;1.57;;;15.60;47.30;;;;;;5083791;28;20470;-64
2022/04/20 13:15:47;;;;;;;4.03;1.93;;;15.60;51.40;;;;;;5090984;28;20431;-64
2022/04/20 13:18:13;;;;;;;5.60;2.00;;;15.50;49.90;;;;;;5082681;28;20461;-64
2022/04/20 13:20:39;;;;;;;6.90;2.07;;;15.80;49.30;;;;;;5083835;28;20631;-64
2022/04/20 13:23:07;;;;;;;3.20;1.93;;;16.00;49.10;;;;;;5090598;28;20662;-64
2022/04/20 13:28:17;;;;;;;4.27;1.90;;;15.90;48.90;;;;;;5075105;28;21150;-63
2022/04/20 13:30:46;;;;;;;3.90;2.10;;;15.80;49.60;;;;;;5080494;28;20439;-63
2022/04/20 13:33:14;;;;;;;2.70;1.50;;;15.80;49.70;;;;;;5085022;28;20265;-66
2022/04/20 13:35:41;;;;;;;3.70;1.83;;;15.50;49.80;;;;;;5091158;28;20418;-66